Time;durP1;ratioP1;P1;durP2;ratioP2;P2;SDS_P1;SDS_P2;PMS_P1;PMS_P2;Temp;Humidity;BMP_temperature;BMP_pressure;BME280_temperature;BME280_humidity;BME280_pressure;Samples;Min_cycle;Max_cycle;Signal;HPM_P1;HPM_P2
2023/09/25 00:00:35;;;;;;;6.28;3.60;;;;;;;9.21;100.00;102149.38;4915090;28;20040;-76
2023/09/25 00:03:04;;;;;;;5.40;3.50;;;;;;;9.14;100.00;102151.38;4915242;28;20028;-81
2023/09/25 00:05:30;;;;;;;6.18;3.50;;;;;;;9.09;100.00;102140.38;4914917;29;20047;-82
2023/09/25 00:07:56;;;;;;;5.20;2.90;;;;;;;9.12;100.00;102150.56;4914771;28;20056;-75
2023/09/25 00:10:22;;;;;;;6.15;3.63;;;;;;;9.10;100.00;102156.66;4914726;28;20119;-76
2023/09/25 00:12:47;;;;;;;6.20;3.53;;;;;;;9.10;100.00;102156.66;4914660;28;20413;-76
2023/09/25 00:15:13;;;;;;;5.05;3.20;;;;;;;9.05;100.00;102158.59;4915056;29;20028;-76
2023/09/25 00:17:40;;;;;;;6.13;3.53;;;;;;;9.03;100.00;102160.34;4914930;29;20062;-75
2023/09/25 00:20:07;;;;;;;5.72;3.40;;;;;;;9.02;100.00;102156.09;4914785;29;20032;-76
2023/09/25 00:22:32;;;;;;;6.38;3.30;;;;;;;8.92;100.00;102147.84;4913175;28;20083;-75
2023/09/25 00:24:58;;;;;;;5.60;3.38;;;;;;;8.79;100.00;102131.97;4914508;29;20052;-76
2023/09/25 00:27:24;;;;;;;7.65;3.78;;;;;;;8.86;100.00;102145.50;4914410;29;20020;-77
2023/09/25 00:29:49;;;;;;;6.10;4.00;;;;;;;8.77;100.00;102133.78;4913131;28;20032;-76
2023/09/25 00:32:14;;;;;;;5.53;3.00;;;;;;;8.91;100.00;102156.47;4914738;29;20497;-75
2023/09/25 00:34:40;;;;;;;7.45;3.67;;;;;;;8.86;100.00;102146.34;4914237;29;20020;-75
2023/09/25 00:37:05;;;;;;;6.88;3.45;;;;;;;8.89;100.00;102159.09;4914498;29;20032;-75
2023/09/25 00:39:31;;;;;;;6.63;3.55;;;;;;;8.86;100.00;102154.06;4914314;29;20024;-74
2023/09/25 00:41:59;;;;;;;7.22;3.88;;;;;;;8.75;100.00;102142.44;4914100;29;20036;-74
2023/09/25 00:44:24;;;;;;;5.97;3.80;;;;;;;8.76;100.00;102152.72;4914185;28;20035;-74
2023/09/25 00:46:50;;;;;;;7.80;4.03;;;;;;;8.80;100.00;102156.84;4914435;28;20016;-76
2023/09/25 00:49:16;;;;;;;5.68;3.80;;;;;;;8.78;100.00;102158.63;4914232;29;20032;-76
2023/09/25 00:51:42;;;;;;;5.93;3.72;;;;;;;8.66;100.00;102143.59;4914529;28;20036;-74
2023/09/25 00:54:07;;;;;;;8.65;4.10;;;;;;;8.73;100.00;102157.94;4914140;29;20043;-74
2023/09/25 00:56:33;;;;;;;6.90;3.58;;;;;;;8.70;100.00;102160.63;4914011;29;20525;-75
2023/09/25 00:59:00;;;;;;;6.30;3.90;;;;;;;8.69;100.00;102161.53;4914151;29;20535;-74
2023/09/25 01:01:27;;;;;;;7.00;3.65;;;;;;;8.57;100.00;102141.34;4914217;28;20024;-75
2023/09/25 01:03:52;;;;;;;5.97;3.67;;;;;;;8.65;100.00;102157.34;4914039;28;20040;-75
2023/09/25 01:06:18;;;;;;;6.07;3.50;;;;;;;8.67;100.00;102168.47;4914128;28;20412;-74
2023/09/25 01:08:43;;;;;;;5.75;4.07;;;;;;;8.58;100.00;102151.59;4914201;29;20052;-74
2023/09/25 01:11:09;;;;;;;5.30;3.58;;;;;;;8.53;100.00;102144.88;4912714;29;20071;-75
2023/09/25 01:13:34;;;;;;;6.07;3.70;;;;;;;8.62;100.00;102167.75;4916069;28;20374;-74
2023/09/25 01:16:00;;;;;;;5.57;4.00;;;;;;;8.59;100.00;102152.44;4913806;28;20086;-74
2023/09/25 01:18:28;;;;;;;5.65;3.90;;;;;;;8.61;100.00;102168.66;4913768;29;20033;-74
2023/09/25 01:20:54;;;;;;;5.57;3.83;;;;;;;8.57;100.00;102162.78;4913863;28;20055;-74
2023/09/25 01:23:19;;;;;;;10.07;4.10;;;;;;;8.59;100.00;102163.56;4913912;28;20437;-76
2023/09/25 01:25:44;;;;;;;5.47;3.70;;;;;;;8.56;100.00;102165.41;4913771;28;20029;-76
2023/09/25 01:28:10;;;;;;;5.63;3.53;;;;;;;8.52;100.00;102158.66;4913707;28;20033;-76
2023/09/25 01:30:35;;;;;;;5.90;3.83;;;;;;;8.48;100.00;102160.50;4913776;29;20096;-79
2023/09/25 01:33:00;;;;;;;5.47;3.40;;;;;;;8.48;100.00;102162.25;4916025;28;20035;-75
2023/09/25 01:35:26;;;;;;;5.65;3.80;;;;;;;8.45;100.00;102159.75;4921103;28;20035;-76
2023/09/25 01:38:00;;;;;;;5.65;4.05;;;;;;;8.40;100.00;102151.34;4918225;28;20114;-80
2023/09/25 01:40:26;;;;;;;6.53;3.88;;;;;;;8.42;100.00;102159.84;4914847;28;20028;-77
2023/09/25 01:42:52;;;;;;;5.82;3.60;;;;;;;8.33;100.00;102137.78;4917266;28;20036;-74
2023/09/25 01:45:19;;;;;;;5.18;3.20;;;;;;;8.41;100.00;102159.00;4916655;29;20075;-75
2023/09/25 01:47:50;;;;;;;8.13;3.95;;;;;;;8.38;100.00;102160.84;4917277;29;20425;-74
2023/09/25 01:50:16;;;;;;;6.93;3.95;;;;;;;8.33;100.00;102150.66;4917010;29;20024;-76
2023/09/25 01:52:42;;;;;;;6.28;3.90;;;;;;;8.37;100.00;102161.75;4916980;29;20032;-74
2023/09/25 01:55:07;;;;;;;7.43;4.05;;;;;;;8.31;100.00;102152.44;4916660;28;20032;-75
2023/09/25 01:57:34;;;;;;;6.03;4.13;;;;;;;8.26;100.00;102138.91;4916759;28;20482;-77
2023/09/25 01:59:59;;;;;;;6.03;4.20;;;;;;;8.29;100.00;102155.09;4916567;29;20027;-75
2023/09/25 02:02:25;;;;;;;7.40;4.40;;;;;;;8.32;100.00;102156.72;4916611;29;20044;-74
2023/09/25 02:04:50;;;;;;;8.70;4.47;;;;;;;8.31;100.00;102155.88;4916730;29;20107;-75
2023/09/25 02:07:17;;;;;;;7.28;4.28;;;;;;;8.28;100.00;102152.56;4916863;28;20059;-74
2023/09/25 02:09:45;;;;;;;6.68;4.07;;;;;;;8.29;100.00;102146.53;4916694;29;20095;-75
2023/09/25 02:12:10;;;;;;;6.57;4.40;;;;;;;8.05;100.00;102118.09;4916396;28;20055;-75
2023/09/25 02:14:35;;;;;;;6.38;4.38;;;;;;;8.24;100.00;102146.66;4916288;29;20024;-76
2023/09/25 02:17:01;;;;;;;5.82;4.25;;;;;;;8.17;100.00;102140.03;4916563;29;20032;-76
2023/09/25 02:19:28;;;;;;;7.85;4.90;;;;;;;8.17;100.00;102134.06;4899414;29;20063;-76
2023/09/25 02:21:53;;;;;;;7.05;4.32;;;;;;;8.10;100.00;102117.13;4916417;29;20035;-75
2023/09/25 02:24:18;;;;;;;6.45;4.35;;;;;;;8.12;100.00;102115.34;4916587;29;20020;-76
2023/09/25 02:26:44;;;;;;;7.53;4.15;;;;;;;8.22;100.00;102133.00;4899471;29;20078;-77
2023/09/25 02:29:10;;;;;;;6.13;4.20;;;;;;;8.25;100.00;102140.59;4916069;29;20066;-77
2023/09/25 02:31:35;;;;;;;6.93;4.15;;;;;;;8.26;100.00;102132.03;4916111;29;20032;-76
2023/09/25 02:34:01;;;;;;;7.13;4.07;;;;;;;8.27;100.00;102131.13;4916211;29;20029;-76
2023/09/25 02:36:26;;;;;;;7.43;4.65;;;;;;;8.31;100.00;102143.00;4916360;28;20171;-74
2023/09/25 02:38:51;;;;;;;6.57;4.10;;;;;;;8.33;100.00;102141.22;4916104;29;20043;-75
2023/09/25 02:41:16;;;;;;;7.40;3.63;;;;;;;8.32;100.00;102131.81;4915978;28;20028;-75
2023/09/25 02:43:42;;;;;;;5.95;4.00;;;;;;;8.27;100.00;102117.44;4916209;29;20039;-75
2023/09/25 02:46:07;;;;;;;6.78;3.65;;;;;;;8.31;100.00;102130.13;4915999;29;20090;-74
2023/09/25 02:48:32;;;;;;;6.10;4.18;;;;;;;8.27;100.00;102122.56;4899072;29;20378;-74
2023/09/25 02:50:58;;;;;;;6.22;3.70;;;;;;;8.39;100.00;102136.81;4916217;29;20086;-74
2023/09/25 02:53:23;;;;;;;6.43;3.85;;;;;;;8.30;100.00;102133.59;4914752;29;20035;-75
2023/09/25 02:55:51;;;;;;;7.40;3.95;;;;;;;8.36;100.00;102142.91;4915586;29;20122;-76
2023/09/25 02:58:17;;;;;;;7.35;4.15;;;;;;;8.34;100.00;102135.19;4915981;28;20469;-75
2023/09/25 03:00:43;;;;;;;5.90;3.88;;;;;;;8.33;100.00;102135.22;4915679;29;20116;-75
2023/09/25 03:03:08;;;;;;;6.15;3.80;;;;;;;8.32;100.00;102134.38;4915708;29;20028;-77
2023/09/25 03:05:34;;;;;;;6.72;3.53;;;;;;;8.24;100.00;102113.19;4915698;29;20032;-76
2023/09/25 03:07:59;;;;;;;6.43;3.80;;;;;;;8.23;100.00;102110.69;4915915;29;20028;-76
2023/09/25 03:10:24;;;;;;;6.43;3.70;;;;;;;8.40;100.00;102134.16;4915533;29;20028;-78
2023/09/25 03:12:50;;;;;;;6.75;3.75;;;;;;;8.41;100.00;102132.44;4915494;28;20052;-76
2023/09/25 03:15:15;;;;;;;6.95;3.55;;;;;;;8.42;100.00;102132.38;4915636;29;20039;-79
2023/09/25 03:17:40;;;;;;;5.78;4.10;;;;;;;8.33;100.00;102115.47;4915457;29;20071;-75
2023/09/25 03:20:15;;;;;;;6.78;3.83;;;;;;;8.45;100.00;102140.00;4915573;29;20036;-76
2023/09/25 03:22:41;;;;;;;7.65;3.60;;;;;;;8.27;100.00;102107.13;4915617;29;20032;-75
2023/09/25 03:25:07;;;;;;;6.20;3.88;;;;;;;8.45;100.00;102137.41;4915461;28;20032;-78
2023/09/25 03:27:32;;;;;;;6.35;3.80;;;;;;;8.46;100.00;102138.28;4915430;28;20397;-78
2023/09/25 03:29:58;;;;;;;6.78;3.97;;;;;;;8.47;100.00;102139.97;4915270;29;20064;-74
2023/09/25 03:32:23;;;;;;;7.38;3.92;;;;;;;8.48;100.00;102139.91;4915100;29;20123;-75
2023/09/25 03:34:48;;;;;;;7.72;3.90;;;;;;;8.48;100.00;102141.66;4915415;29;20103;-74
2023/09/25 03:37:14;;;;;;;6.88;3.88;;;;;;;8.48;100.00;102136.50;4993474;28;20479;-75
2023/09/25 03:39:39;;;;;;;7.63;4.13;;;;;;;8.25;100.00;102096.88;4997182;28;20034;-80
2023/09/25 03:42:05;;;;;;;5.95;3.60;;;;;;;8.46;100.00;102133.97;4996325;28;20057;-78
2023/09/25 03:44:30;;;;;;;7.80;4.15;;;;;;;8.42;100.00;102129.81;5014622;28;20057;-75
2023/09/25 03:46:56;;;;;;;6.47;4.20;;;;;;;8.49;100.00;102135.59;5014517;28;20096;-75
2023/09/25 03:49:21;;;;;;;5.93;3.85;;;;;;;8.39;100.00;102116.22;5014522;28;20029;-75
2023/09/25 03:51:46;;;;;;;6.05;3.92;;;;;;;8.45;100.00;102127.13;5014661;28;20026;-75
2023/09/25 03:54:12;;;;;;;5.82;3.67;;;;;;;8.51;100.00;102133.81;5014492;28;20438;-78
2023/09/25 03:56:37;;;;;;;7.93;3.95;;;;;;;8.53;100.00;102140.59;4997022;28;20044;-75
2023/09/25 03:59:03;;;;;;;9.10;4.35;;;;;;;8.54;100.00;102141.44;4996475;28;20034;-74
2023/09/25 04:01:29;;;;;;;8.18;4.57;;;;;;;8.52;100.00;102133.75;5013198;28;20029;-75
2023/09/25 04:03:55;;;;;;;6.82;4.05;;;;;;;8.33;100.00;102105.19;5012076;28;20092;-76
2023/09/25 04:06:20;;;;;;;7.30;3.78;;;;;;;8.61;100.00;102148.06;4996265;28;20128;-75
2023/09/25 04:08:45;;;;;;;8.20;4.22;;;;;;;8.62;100.00;102150.56;5014162;28;20058;-76
2023/09/25 04:11:11;;;;;;;8.40;4.15;;;;;;;8.62;100.00;102140.28;5014372;28;20072;-77
2023/09/25 04:13:37;;;;;;;7.60;4.13;;;;;;;8.56;100.00;102137.94;5013664;28;20104;-77
2023/09/25 04:16:03;;;;;;;6.15;3.92;;;;;;;8.63;100.00;102147.09;5013975;28;20041;-74
2023/09/25 04:18:29;;;;;;;5.68;3.80;;;;;;;8.65;100.00;102146.22;5013947;28;20368;-72
2023/09/25 04:20:57;;;;;;;7.60;4.30;;;;;;;8.67;100.00;102154.75;5013750;28;20065;-75
2023/09/25 04:23:23;;;;;;;7.45;3.97;;;;;;;8.67;100.00;102153.00;5013695;28;20030;-75
2023/09/25 04:25:52;;;;;;;7.55;3.92;;;;;;;8.51;100.00;102121.78;5013863;28;20057;-75
2023/09/25 04:28:17;;;;;;;7.55;4.05;;;;;;;8.69;100.00;102147.81;5013747;28;20072;-77
2023/09/25 04:30:43;;;;;;;11.82;4.50;;;;;;;8.65;100.00;102139.31;5013750;28;20062;-74
2023/09/25 04:33:09;;;;;;;7.68;3.92;;;;;;;8.66;100.00;102133.31;5013564;28;20365;-75
2023/09/25 04:35:36;;;;;;;6.55;3.83;;;;;;;8.69;100.00;102140.91;5013678;28;20112;-75
2023/09/25 04:38:03;;;;;;;5.90;4.18;;;;;;;8.67;100.00;102147.88;5015180;28;20038;-74
2023/09/25 04:40:31;;;;;;;9.23;4.00;;;;;;;8.64;100.00;102137.66;5015300;28;20022;-76
2023/09/25 04:42:57;;;;;;;6.78;4.00;;;;;;;8.76;100.00;102162.16;5013731;28;20033;-76
2023/09/25 04:45:23;;;;;;;6.95;3.33;;;;;;;8.61;100.00;102137.75;5013589;28;20048;-75
2023/09/25 04:47:51;;;;;;;6.50;3.83;;;;;;;8.71;100.00;102154.59;5013531;28;20091;-77
2023/09/25 04:50:17;;;;;;;8.07;4.57;;;;;;;8.67;100.00;102140.13;5013573;28;20026;-76
2023/09/25 04:52:46;;;;;;;7.38;4.07;;;;;;;8.72;100.00;102158.84;5013477;28;20109;-75
2023/09/25 04:55:13;;;;;;;6.72;3.80;;;;;;;8.77;100.00;102158.69;5013513;28;20048;-76
2023/09/25 04:57:45;;;;;;;8.05;4.15;;;;;;;8.76;100.00;102165.59;5013162;28;20025;-77
2023/09/25 05:00:27;;;;;;;6.72;3.78;;;;;;;8.77;100.00;102166.41;5013224;28;20510;-75
2023/09/25 05:02:55;;;;;;;6.40;3.90;;;;;;;8.49;100.00;102123.56;5013175;28;20116;-83
2023/09/25 05:05:24;;;;;;;7.85;4.28;;;;;;;8.60;100.00;102143.81;5013279;28;20024;-76
2023/09/25 05:07:51;;;;;;;5.85;3.63;;;;;;;7.98;100.00;102043.75;5013295;28;20108;-78
2023/09/25 05:10:22;;;;;;;5.85;3.78;;;;;;;8.71;100.00;102167.47;4995613;28;20467;-76
2023/09/25 05:12:48;;;;;;;6.72;3.67;;;;;;;8.23;100.00;102084.94;5012885;28;20049;-74
2023/09/25 05:15:15;;;;;;;6.18;3.92;;;;;;;8.69;100.00;102158.94;5012374;28;20026;-74
2023/09/25 05:17:41;;;;;;;6.60;4.05;;;;;;;8.59;100.00;102150.69;4995214;28;20438;-74
2023/09/25 05:20:15;;;;;;;6.18;3.53;;;;;;;8.72;100.00;102171.72;5013140;28;20097;-75
2023/09/25 05:22:44;;;;;;;6.95;4.20;;;;;;;8.72;100.00;102171.72;4994568;28;20042;-75
2023/09/25 05:25:11;;;;;;;9.45;4.35;;;;;;;8.60;100.00;102151.53;5013057;28;20022;-76
2023/09/25 05:27:37;;;;;;;6.25;3.75;;;;;;;8.70;100.00;102175.25;5012698;28;20032;-75
2023/09/25 05:30:09;;;;;;;5.88;3.88;;;;;;;8.67;100.00;102171.03;5012443;28;20084;-76
2023/09/25 05:32:36;;;;;;;7.32;4.00;;;;;;;8.68;100.00;102167.56;5013165;28;20058;-77
2023/09/25 05:35:01;;;;;;;5.40;3.75;;;;;;;8.70;100.00;102170.94;5012947;28;20095;-79
2023/09/25 05:37:26;;;;;;;5.82;3.58;;;;;;;8.60;100.00;102154.09;5012810;28;20510;-78
2023/09/25 05:39:52;;;;;;;8.00;4.30;;;;;;;8.72;100.00;102174.28;5012895;28;20108;-76
2023/09/25 05:42:17;;;;;;;6.00;3.80;;;;;;;8.67;100.00;102163.31;5012805;28;20037;-77
2023/09/25 05:44:43;;;;;;;6.38;4.05;;;;;;;8.71;100.00;102153.75;5012376;28;20118;-77
2023/09/25 05:47:08;;;;;;;8.13;4.28;;;;;;;8.84;100.00;102175.59;5012629;28;20099;-78
2023/09/25 05:49:33;;;;;;;6.72;3.72;;;;;;;8.94;100.00;102181.28;5012631;28;20022;-76
2023/09/25 05:51:59;;;;;;;7.18;3.83;;;;;;;9.01;100.00;102188.75;5012908;28;20076;-81
2023/09/25 05:54:24;;;;;;;8.93;3.72;;;;;;;9.06;100.00;102186.88;5012844;28;20040;-76
2023/09/25 05:56:49;;;;;;;6.72;3.70;;;;;;;9.00;100.00;102165.63;5012730;28;20034;-76
2023/09/25 05:59:15;;;;;;;6.85;3.80;;;;;;;9.13;100.00;102170.28;5012228;28;20026;-76
2023/09/25 06:01:44;;;;;;;7.05;4.00;;;;;;;9.19;100.00;102182.13;5012393;28;20030;-75
2023/09/25 06:04:10;;;;;;;7.13;3.30;;;;;;;9.33;100.00;102187.59;4994955;28;20034;-78
2023/09/25 06:06:35;;;;;;;6.82;3.60;;;;;;;9.32;100.00;102179.94;5011901;28;20045;-77
2023/09/25 06:09:01;;;;;;;7.30;4.00;;;;;;;9.44;100.00;102188.09;5012363;28;20030;-76
2023/09/25 06:11:27;;;;;;;6.32;3.25;;;;;;;9.51;100.00;102185.25;5012478;28;20026;-75
2023/09/25 06:13:52;;;;;;;7.07;3.08;;;;;;;9.64;100.00;102189.94;5010003;28;20057;-75
2023/09/25 06:16:17;;;;;;;7.10;3.28;;;;;;;9.77;100.00;102190.31;5012388;28;20061;-76
2023/09/25 06:18:43;;;;;;;9.98;3.88;;;;;;;9.68;100.00;102164.84;5012491;28;20030;-77
2023/09/25 06:21:12;;;;;;;9.32;4.15;;;;;;;10.00;100.00;102192.00;5012390;28;20026;-77
2023/09/25 06:23:38;;;;;;;9.65;4.57;;;;;;;10.12;100.00;102193.25;5012314;28;20126;-76
2023/09/25 06:26:04;;;;;;;14.75;5.82;;;;;;;10.17;100.00;102178.44;4927234;28;20111;-73
2023/09/25 06:28:30;;;;;;;11.93;4.50;;;;;;;10.40;100.00;102190.44;4971972;23;20058;-76
2023/09/25 06:30:59;;;;;;;13.57;5.50;;;;;;;10.45;100.00;102179.03;4973249;28;20047;-76
2023/09/25 06:33:25;;;;;;;12.98;5.32;;;;;;;10.62;100.00;102188.69;4973412;28;20039;-75
2023/09/25 06:35:51;;;;;;;20.60;5.40;;;;;;;10.79;100.00;102187.97;4973885;28;20026;-74
2023/09/25 06:38:16;;;;;;;15.68;6.15;;;;;;;11.04;100.00;102193.78;4973682;28;20369;-76
2023/09/25 06:40:47;;;;;;;20.55;5.78;;;;;;;11.27;100.00;102199.69;4973221;28;20023;-73
2023/09/25 06:43:13;;;;;;;12.98;4.57;;;;;;;11.41;100.00;102192.19;4973355;28;20245;-75
2023/09/25 06:45:39;;;;;;;11.98;4.30;;;;;;;11.63;100.00;102202.38;4973157;28;20515;-79
2023/09/25 06:48:05;;;;;;;11.02;4.30;;;;;;;11.62;100.00;102191.19;4973373;28;20035;-75
2023/09/25 06:50:30;;;;;;;13.15;4.82;;;;;;;11.82;100.00;102205.00;4973405;28;20487;-74
2023/09/25 06:52:56;;;;;;;27.60;6.97;;;;;;;11.73;100.00;102176.03;4973130;28;20502;-74
2023/09/25 06:55:22;;;;;;;19.42;6.32;;;;;;;11.85;100.00;102181.56;4955691;28;20037;-73
2023/09/25 06:57:47;;;;;;;15.50;5.65;;;;;;;12.05;100.00;102200.44;4973447;28;20480;-73
2023/09/25 07:00:13;;;;;;;18.73;5.78;;;;;;;12.16;100.00;102204.25;4972901;28;20483;-74
2023/09/25 07:02:39;;;;;;;7.53;3.90;;;;;;;12.20;100.00;102195.44;4973189;28;20031;-75
2023/09/25 07:05:05;;;;;;;6.60;3.13;;;;;;;12.37;100.00;102211.00;4973049;28;20418;-75
2023/09/25 07:07:30;;;;;;;6.40;2.90;;;;;;;12.34;100.00;102191.25;4973095;28;20030;-76
2023/09/25 07:09:56;;;;;;;7.70;2.83;;;;;;;12.53;99.13;102208.50;4971835;28;20113;-73
2023/09/25 07:12:22;;;;;;;6.20;3.00;;;;;;;12.51;98.69;102179.25;4973344;28;20027;-75
2023/09/25 07:14:56;;;;;;;5.15;3.10;;;;;;;12.75;98.80;102201.34;4972969;28;20057;-74
2023/09/25 07:17:25;;;;;;;5.07;2.80;;;;;;;12.89;98.95;102208.44;4972769;28;20539;-76
2023/09/25 07:19:51;;;;;;;5.38;2.90;;;;;;;12.81;97.71;102172.53;4973221;28;20030;-75
2023/09/25 07:22:17;;;;;;;5.22;2.90;;;;;;;13.12;96.41;102205.50;4972940;28;20026;-76
2023/09/25 07:24:42;;;;;;;5.75;2.78;;;;;;;13.21;96.94;102206.81;4972900;28;20438;-75
2023/09/25 07:27:08;;;;;;;5.70;3.03;;;;;;;13.30;96.53;102205.50;4972625;28;20496;-76
2023/09/25 07:29:33;;;;;;;6.15;3.05;;;;;;;13.42;98.19;102210.88;4972287;28;20046;-77
2023/09/25 07:31:58;;;;;;;4.82;2.70;;;;;;;13.43;97.56;102188.34;4972916;28;20031;-74
2023/09/25 07:34:24;;;;;;;5.72;2.63;;;;;;;13.62;94.21;102204.63;4972761;28;20026;-75
2023/09/25 07:36:49;;;;;;;4.55;2.42;;;;;;;13.64;93.21;102197.56;4972966;28;20388;-75
2023/09/25 07:39:22;;;;;;;7.22;3.03;;;;;;;13.74;92.92;102203.09;4974109;28;20030;-74
2023/09/25 07:41:48;;;;;;;6.32;3.15;;;;;;;13.81;92.01;102204.47;4975267;28;20030;-71
2023/09/25 07:44:13;;;;;;;5.78;2.85;;;;;;;13.89;91.78;102204.03;4972581;28;20492;-76
2023/09/25 07:46:39;;;;;;;6.47;3.05;;;;;;;13.95;92.53;102204.53;4972353;28;20076;-75
2023/09/25 07:49:05;;;;;;;7.97;3.08;;;;;;;13.98;93.00;102186.19;4972540;28;20456;-75
2023/09/25 07:51:32;;;;;;;5.25;2.92;;;;;;;14.04;92.37;102195.38;4972440;28;20022;-78
2023/09/25 07:53:58;;;;;;;9.20;2.90;;;;;;;14.10;91.23;102200.25;4972446;28;20054;-76
2023/09/25 07:56:27;;;;;;;6.00;2.85;;;;;;;14.14;90.93;102199.16;4972412;28;20023;-71
2023/09/25 07:58:55;;;;;;;5.93;2.92;;;;;;;14.16;92.06;102176.53;4972517;28;20027;-74
2023/09/25 08:01:22;;;;;;;6.03;3.00;;;;;;;14.37;91.42;102197.88;4954651;28;20046;-75
2023/09/25 08:03:51;;;;;;;5.65;3.00;;;;;;;14.41;89.21;102198.50;4972353;28;20084;-75
2023/09/25 08:06:19;;;;;;;5.68;2.97;;;;;;;14.51;87.23;102208.31;4972391;28;20015;-75
2023/09/25 08:08:45;;;;;;;4.13;2.30;;;;;;;14.59;87.80;102208.72;4954798;28;20039;-78
2023/09/25 08:11:10;;;;;;;4.93;2.50;;;;;;;14.64;87.34;102208.44;4972274;28;20031;-74
2023/09/25 08:13:35;;;;;;;5.35;2.70;;;;;;;14.59;86.85;102192.28;4972133;28;20565;-75
2023/09/25 08:16:05;;;;;;;7.80;2.75;;;;;;;14.62;86.82;102189.50;4971816;28;20030;-75
2023/09/25 08:18:30;;;;;;;4.82;2.42;;;;;;;14.71;85.25;102195.94;4954282;28;20052;-78
2023/09/25 08:20:56;;;;;;;7.10;2.60;;;;;;;14.84;84.85;102213.31;4972036;28;20034;-76
2023/09/25 08:23:21;;;;;;;7.50;2.90;;;;;;;14.89;85.44;102202.66;4972229;28;20052;-76
2023/09/25 08:25:46;;;;;;;5.57;2.50;;;;;;;14.91;85.59;102195.59;4971969;28;20357;-75
2023/09/25 08:28:13;;;;;;;4.90;2.38;;;;;;;14.94;84.12;102190.19;4971742;28;20174;-73
2023/09/25 08:30:39;;;;;;;5.93;2.65;;;;;;;15.07;86.00;102201.56;4971434;28;20558;-76
2023/09/25 08:33:05;;;;;;;6.28;2.88;;;;;;;15.00;85.95;102176.00;4971771;28;20031;-77
2023/09/25 08:35:30;;;;;;;6.35;2.70;;;;;;;15.14;84.11;102184.66;4971812;28;20068;-75
2023/09/25 08:37:55;;;;;;;4.35;2.20;;;;;;;15.26;84.03;102179.66;4972137;28;20026;-76
2023/09/25 08:40:21;;;;;;;5.07;2.50;;;;;;;15.24;81.56;102163.25;4971756;28;20468;-72
2023/09/25 08:42:48;;;;;;;6.43;2.40;;;;;;;15.44;85.09;102176.75;4971513;28;20498;-77
2023/09/25 08:45:15;;;;;;;6.80;2.60;;;;;;;15.68;82.76;102181.38;4955342;28;20038;-80
2023/09/25 08:48:00;;;;;;;5.72;2.25;;;;;;;15.84;83.72;102178.66;4971683;28;20023;-75
2023/09/25 08:50:25;;;;;;;5.18;2.17;;;;;;;15.89;80.78;102158.34;4970271;28;20039;-76
2023/09/25 08:52:51;;;;;;;3.30;2.05;;;;;;;16.09;78.35;102160.50;4971862;28;20494;-77
2023/09/25 08:55:16;;;;;;;4.60;2.35;;;;;;;16.21;74.68;102167.50;4971793;28;20068;-77
2023/09/25 08:57:42;;;;;;;5.47;2.25;;;;;;;16.18;77.59;102144.25;4953986;28;20039;-79
2023/09/25 09:00:17;;;;;;;5.30;1.83;;;;;;;16.37;74.46;102159.53;4971254;28;20475;-78
2023/09/25 09:02:43;;;;;;;4.75;2.00;;;;;;;16.43;76.15;102168.72;4971319;28;20499;-80
2023/09/25 09:05:11;;;;;;;3.53;2.00;;;;;;;16.48;75.73;102154.41;4971568;28;20391;-77
2023/09/25 09:07:38;;;;;;;5.13;2.30;;;;;;;16.72;78.00;102170.25;4971400;28;20388;-75
2023/09/25 09:10:04;;;;;;;4.75;2.25;;;;;;;16.77;73.66;102173.38;4971304;28;20093;-78
2023/09/25 09:12:29;;;;;;;3.67;2.00;;;;;;;16.71;75.54;102154.66;4971309;28;20416;-76
2023/09/25 09:14:58;;;;;;;3.92;2.17;;;;;;;16.89;77.40;102166.47;4971068;28;20027;-77
2023/09/25 09:17:27;;;;;;;3.88;1.92;;;;;;;16.89;75.83;102162.09;4971580;28;20034;-76
2023/09/25 09:19:52;;;;;;;5.07;2.00;;;;;;;16.93;74.47;102157.50;4971319;28;20031;-78
2023/09/25 09:22:19;;;;;;;5.35;1.80;;;;;;;16.81;72.85;102140.06;4971250;28;20114;-77
2023/09/25 09:24:45;;;;;;;4.45;2.08;;;;;;;16.85;71.45;102144.97;4971197;28;20031;-76
2023/09/25 09:27:14;;;;;;;5.35;2.25;;;;;;;16.69;74.12;102126.09;4971192;28;20027;-81
2023/09/25 09:29:42;;;;;;;4.78;2.13;;;;;;;17.05;73.60;102174.09;4970732;28;20047;-77
2023/09/25 09:32:08;;;;;;;3.70;1.70;;;;;;;17.01;73.57;102165.66;4970994;28;20026;-78
2023/09/25 09:34:34;;;;;;;4.68;2.00;;;;;;;17.03;72.01;102161.16;4970992;28;20387;-77
2023/09/25 09:37:00;;;;;;;4.28;1.70;;;;;;;17.05;71.85;102169.72;4970888;28;20026;-77
2023/09/25 09:39:26;;;;;;;4.85;2.35;;;;;;;16.96;72.26;102165.13;4971153;28;20019;-77
2023/09/25 09:41:52;;;;;;;5.30;1.70;;;;;;;17.10;72.96;102172.81;4971008;28;20027;-76
2023/09/25 09:44:19;;;;;;;4.82;1.85;;;;;;;17.21;75.81;102174.72;4970598;28;20042;-76
2023/09/25 09:46:50;;;;;;;4.43;1.73;;;;;;;17.18;73.33;102165.31;4970723;28;20066;-76
2023/09/25 09:49:21;;;;;;;5.35;2.00;;;;;;;17.11;75.50;102150.19;4970601;28;20101;-76
2023/09/25 09:51:49;;;;;;;5.97;2.15;;;;;;;17.44;75.57;102183.53;4970784;28;20034;-74
2023/09/25 09:54:17;;;;;;;3.97;1.73;;;;;;;17.52;74.26;102180.41;4969545;28;20023;-73
2023/09/25 09:56:42;;;;;;;4.25;1.83;;;;;;;17.61;73.44;102184.97;4951587;29;20404;-77
2023/09/25 09:59:09;;;;;;;4.47;1.73;;;;;;;17.45;73.24;102151.25;4951966;29;20031;-74
2023/09/25 10:01:36;;;;;;;4.88;1.67;;;;;;;17.75;74.71;102190.06;4951443;28;20031;-81
2023/09/25 10:04:07;;;;;;;6.00;1.85;;;;;;;17.78;70.85;102187.22;4954613;29;20027;-77
2023/09/25 10:06:42;;;;;;;4.10;1.73;;;;;;;17.78;73.03;102180.22;4954715;29;20027;-76
2023/09/25 10:09:10;;;;;;;6.63;2.15;;;;;;;17.91;73.00;102195.88;4954509;29;20496;-74
2023/09/25 10:11:36;;;;;;;4.65;1.90;;;;;;;17.95;72.20;102176.38;4954251;29;20082;-77
2023/09/25 10:14:03;;;;;;;5.43;1.90;;;;;;;18.02;72.16;102192.47;4954533;29;20468;-77
2023/09/25 10:16:30;;;;;;;4.38;2.00;;;;;;;17.95;69.88;102179.00;4954459;29;20028;-76
2023/09/25 10:18:56;;;;;;;5.00;1.95;;;;;;;17.90;69.95;102175.06;4954567;29;20079;-76
2023/09/25 10:21:21;;;;;;;3.28;1.58;;;;;;;18.01;71.53;102180.34;4954586;29;20413;-75
2023/09/25 10:23:48;;;;;;;4.97;1.63;;;;;;;18.09;73.32;102174.53;4954452;29;20036;-77
2023/09/25 10:26:21;;;;;;;6.60;2.08;;;;;;;18.22;73.28;102172.72;4954215;29;20430;-78
2023/09/25 10:28:58;;;;;;;4.97;1.80;;;;;;;18.31;72.39;102161.56;4954237;28;20201;-78
2023/09/25 10:31:29;;;;;;;3.53;2.00;;;;;;;18.32;71.27;102166.69;4954457;28;20123;-80
2023/09/25 10:33:57;;;;;;;4.40;1.93;;;;;;;18.34;71.24;102163.94;4954259;28;20102;-76
2023/09/25 10:36:38;;;;;;;5.00;2.00;;;;;;;18.49;70.11;102181.13;4954536;29;20058;-78
2023/09/25 10:39:16;;;;;;;3.25;1.95;;;;;;;18.54;70.08;102189.44;4954068;29;20023;-73
2023/09/25 10:41:42;;;;;;;4.78;2.10;;;;;;;18.56;68.88;102178.88;4954243;29;20042;-78
2023/09/25 10:44:11;;;;;;;5.60;2.10;;;;;;;18.59;69.50;102182.09;4954350;29;20024;-74
2023/09/25 10:46:40;;;;;;;3.50;1.83;;;;;;;18.45;69.78;102147.44;4953946;28;20027;-76
2023/09/25 10:49:25;;;;;;;6.38;2.00;;;;;;;18.20;73.50;102083.09;4955506;29;20077;-77
2023/09/25 10:51:55;;;;;;;3.47;1.77;;;;;;;18.68;70.99;102143.09;4956436;29;20024;-77
2023/09/25 10:54:21;;;;;;;3.15;1.63;;;;;;;18.87;68.70;102161.69;4954039;29;20111;-76
2023/09/25 10:56:46;;;;;;;5.90;2.20;;;;;;;18.73;69.65;102143.59;4946725;28;20121;-78
2023/09/25 10:59:11;;;;;;;4.80;1.83;;;;;;;18.87;71.64;102167.75;4973445;28;20421;-75
2023/09/25 11:01:39;;;;;;;3.83;2.10;;;;;;;18.81;68.75;102173.47;4973048;28;20023;-75
2023/09/25 11:04:05;;;;;;;5.82;1.77;;;;;;;18.82;72.15;102182.16;4973173;28;20383;-77
2023/09/25 11:06:31;;;;;;;6.78;1.90;;;;;;;18.72;71.15;102155.88;4973291;28;20029;-76
2023/09/25 11:09:06;;;;;;;4.15;1.80;;;;;;;18.92;71.96;102188.34;4971919;28;20384;-73
2023/09/25 11:11:32;;;;;;;4.90;1.75;;;;;;;18.92;71.76;102185.75;4973594;28;20422;-77
2023/09/25 11:14:00;;;;;;;2.60;1.40;;;;;;;18.95;71.56;102180.25;4972181;28;20085;-74
2023/09/25 11:16:28;;;;;;;4.15;1.70;;;;;;;18.85;69.31;102164.44;4972985;28;20050;-76
2023/09/25 11:19:14;;;;;;;3.75;1.77;;;;;;;18.82;70.12;102159.44;4955549;28;20479;-79
2023/09/25 11:21:40;;;;;;;4.43;1.70;;;;;;;18.94;66.85;102180.38;4972659;28;20086;-80